Time;durP1;ratioP1;P1;durP2;ratioP2;P2;SDS_P1;SDS_P2;PMS_P1;PMS_P2;Temp;Humidity;BMP_temperature;BMP_pressure;BME280_temperature;BME280_humidity;BME280_pressure;Samples;Min_cycle;Max_cycle;Signal;HPM_P1;HPM_P2
2023/08/13 00:00:45;;;;;;;1.40;1.30;;;;;;;24.23;58.14;97795.69;5053245;28;20223;-30
2023/08/13 00:03:12;;;;;;;1.50;1.40;;;;;;;24.23;57.96;97793.13;5064671;28;20224;-35
2023/08/13 00:05:38;;;;;;;1.20;1.20;;;;;;;24.23;57.79;97792.25;5070123;28;20570;-27
2023/08/13 00:08:05;;;;;;;1.17;1.17;;;;;;;24.23;57.86;97790.56;5063278;28;20202;-27
2023/08/13 00:10:33;;;;;;;1.53;1.40;;;;;;;24.24;57.87;97782.00;5065546;28;20200;-27
2023/08/13 00:12:59;;;;;;;1.20;1.20;;;;;;;24.22;57.63;97778.53;5059498;28;20675;-27
2023/08/13 00:15:26;;;;;;;1.13;1.13;;;;;;;24.22;57.86;97773.38;5061322;28;20274;-29
2023/08/13 00:17:52;;;;;;;1.17;1.17;;;;;;;24.22;57.61;97773.38;5066040;28;20675;-29
2023/08/13 00:20:19;;;;;;;1.20;1.20;;;;;;;24.21;57.71;97783.63;5059009;28;20212;-27
2023/08/13 00:22:46;;;;;;;1.20;1.20;;;;;;;24.20;57.58;97784.47;5066674;28;20216;-27
2023/08/13 00:25:12;;;;;;;1.20;1.20;;;;;;;24.20;57.76;97790.47;5057206;28;20201;-30
2023/08/13 00:27:39;;;;;;;1.23;1.23;;;;;;;24.19;57.98;97780.16;5059620;28;20204;-29
2023/08/13 00:30:06;;;;;;;1.30;1.20;;;;;;;24.19;58.14;97791.28;5073790;28;20207;-27
2023/08/13 00:32:33;;;;;;;1.30;1.20;;;;;;;24.18;57.67;97791.25;5065954;28;20224;-30
2023/08/13 00:34:59;;;;;;;1.00;1.00;;;;;;;24.17;58.06;97792.97;5074653;28;20196;-28
2023/08/13 00:37:26;;;;;;;1.30;1.20;;;;;;;24.18;58.07;97791.25;5066467;28;20196;-29
2023/08/13 00:39:52;;;;;;;1.50;1.40;;;;;;;24.17;57.67;97792.97;5066405;28;20196;-27
2023/08/13 00:42:19;;;;;;;1.10;1.10;;;;;;;24.17;57.85;97794.66;5066234;28;20251;-31
2023/08/13 00:44:45;;;;;;;1.50;1.40;;;;;;;24.17;57.84;97784.41;5065989;28;20246;-28
2023/08/13 00:47:12;;;;;;;1.20;1.20;;;;;;;24.17;57.83;97782.69;5074262;28;20257;-27
2023/08/13 00:49:39;;;;;;;1.17;1.17;;;;;;;24.15;57.84;97781.78;5065192;28;20204;-27
2023/08/13 00:52:05;;;;;;;1.50;1.40;;;;;;;24.16;58.07;97786.09;5043553;22;20235;-27
2023/08/13 00:54:32;;;;;;;1.17;1.13;;;;;;;24.00;58.11;97763.47;5048058;28;20259;-35
2023/08/13 00:56:58;;;;;;;1.40;1.30;;;;;;;24.17;57.96;97795.53;5032196;28;20209;-24
2023/08/13 00:59:25;;;;;;;1.20;1.20;;;;;;;24.17;58.01;97792.97;5035165;28;20318;-23
2023/08/13 01:01:52;;;;;;;1.23;1.20;;;;;;;24.13;57.81;97780.88;5025941;28;20202;-26
2023/08/13 01:04:18;;;;;;;1.17;1.17;;;;;;;24.17;58.36;97780.13;5052314;28;20201;-24
2023/08/13 01:07:13;;;;;;;1.10;1.10;;;;;;;24.18;58.11;97775.84;5053185;28;20215;-23
2023/08/13 01:10:17;;;;;;;1.30;1.30;;;;;;;24.19;57.93;97780.16;5053702;28;20645;-23
2023/08/13 01:13:04;;;;;;;1.20;1.20;;;;;;;24.19;57.94;97790.44;5053561;28;20310;-23
2023/08/13 01:15:37;;;;;;;1.13;1.03;;;;;;;24.18;58.16;97797.28;5050652;28;20659;-25
2023/08/13 01:18:04;;;;;;;1.10;1.10;;;;;;;24.19;57.75;97795.59;5048900;28;20262;-23
2023/08/13 01:20:31;;;;;;;1.20;1.20;;;;;;;24.18;57.90;97791.25;5031981;28;20206;-27
2023/08/13 01:22:58;;;;;;;1.10;1.10;;;;;;;24.18;58.10;97786.13;5053314;28;20217;-24
2023/08/13 01:25:27;;;;;;;1.00;1.00;;;;;;;24.18;58.22;97789.56;5053634;28;20209;-24
2023/08/13 01:28:21;;;;;;;1.20;1.20;;;;;;;24.17;58.35;97785.28;5053758;28;20298;-24
2023/08/13 01:30:52;;;;;;;1.10;1.10;;;;;;;24.15;57.97;97778.34;5053324;28;20201;-24
2023/08/13 01:33:26;;;;;;;1.40;1.30;;;;;;;24.17;57.90;97782.69;5048758;28;20231;-24
2023/08/13 01:35:57;;;;;;;1.20;1.20;;;;;;;24.18;58.25;97786.13;5053834;28;20204;-39
2023/08/13 01:38:24;;;;;;;1.20;1.20;;;;;;;24.09;57.99;97779.09;5053479;28;20228;-23
2023/08/13 01:40:51;;;;;;;1.30;1.30;;;;;;;24.18;58.22;97783.56;5051434;28;20213;-24
2023/08/13 01:43:17;;;;;;;1.10;1.10;;;;;;;24.18;58.22;97789.56;5053006;28;20221;-39
2023/08/13 01:45:44;;;;;;;1.40;1.30;;;;;;;24.19;57.79;97787.88;5045107;28;20208;-25
2023/08/13 01:48:10;;;;;;;1.30;1.30;;;;;;;24.18;57.92;97787.00;5053291;28;20201;-24
2023/08/13 01:50:38;;;;;;;1.30;1.20;;;;;;;24.18;58.39;97787.00;5052388;28;20209;-44
2023/08/13 01:53:05;;;;;;;1.40;1.30;;;;;;;24.19;58.21;97788.72;5053131;28;20256;-24
2023/08/13 01:55:31;;;;;;;1.37;1.27;;;;;;;24.15;58.13;97773.22;5053055;28;20629;-24
2023/08/13 01:57:58;;;;;;;1.07;1.07;;;;;;;24.19;58.20;97783.59;5052945;28;20208;-37
2023/08/13 02:00:25;;;;;;;1.10;1.10;;;;;;;24.19;57.94;97785.31;5051582;28;20270;-26
2023/08/13 02:02:51;;;;;;;1.20;1.20;;;;;;;24.19;58.22;97775.88;5052485;28;20290;-24
2023/08/13 02:05:18;;;;;;;1.23;1.23;;;;;;;24.18;58.00;97766.44;5052604;28;20216;-24
2023/08/13 02:07:44;;;;;;;1.13;1.13;;;;;;;24.19;58.02;97769.91;5052627;28;20214;-23
2023/08/13 02:10:11;;;;;;;1.13;1.13;;;;;;;24.18;58.33;97771.59;5052667;28;20729;-29
2023/08/13 02:12:39;;;;;;;1.00;1.00;;;;;;;24.19;58.10;97767.34;5052858;28;20671;-30
2023/08/13 02:15:06;;;;;;;1.17;1.10;;;;;;;24.19;57.93;97772.47;5044672;28;20621;-27
2023/08/13 02:17:32;;;;;;;1.20;1.20;;;;;;;24.18;58.45;97773.28;5052781;28;20208;-23
2023/08/13 02:19:59;;;;;;;1.10;1.10;;;;;;;24.19;57.96;97778.44;5052766;28;20246;-37
2023/08/13 02:22:26;;;;;;;1.20;1.20;;;;;;;24.19;58.02;97775.03;5052611;28;20219;-23
2023/08/13 02:24:52;;;;;;;1.40;1.30;;;;;;;24.19;57.92;97780.16;5047474;28;20734;-23
2023/08/13 02:27:19;;;;;;;1.30;1.20;;;;;;;24.19;58.28;97780.16;5052505;28;20207;-23
2023/08/13 02:29:45;;;;;;;1.10;1.10;;;;;;;24.19;58.28;97773.31;5052466;28;20209;-32
2023/08/13 02:32:12;;;;;;;1.43;1.33;;;;;;;24.18;58.24;97778.41;5046330;28;20702;-25
2023/08/13 02:34:43;;;;;;;1.30;1.20;;;;;;;24.18;58.35;97774.16;5052369;28;20232;-23
2023/08/13 02:37:10;;;;;;;1.17;1.17;;;;;;;24.18;57.98;97774.16;5044863;28;20201;-31
2023/08/13 02:39:36;;;;;;;1.30;1.20;;;;;;;24.19;58.20;97775.03;5052363;28;20204;-25
2023/08/13 02:42:03;;;;;;;1.13;1.13;;;;;;;24.20;58.22;97779.31;5052433;28;20205;-23
2023/08/13 02:44:29;;;;;;;1.10;1.10;;;;;;;24.18;57.99;97779.28;5052259;28;20240;-24
2023/08/13 02:46:56;;;;;;;1.10;1.10;;;;;;;24.19;58.20;97790.44;5050713;28;20254;-32
2023/08/13 02:49:23;;;;;;;1.13;1.13;;;;;;;24.18;58.07;97779.28;5045452;28;20204;-27
2023/08/13 02:51:49;;;;;;;1.40;1.30;;;;;;;24.18;58.13;97769.03;5052318;28;20228;-23
2023/08/13 02:54:16;;;;;;;1.10;1.10;;;;;;;24.19;58.37;97775.03;5051734;28;20330;-24
2023/08/13 02:56:42;;;;;;;1.07;1.07;;;;;;;24.19;58.15;97781.00;5049832;28;20205;-23
2023/08/13 02:59:09;;;;;;;1.20;1.20;;;;;;;24.18;58.09;97779.28;5052094;28;20238;-30
2023/08/13 03:01:38;;;;;;;1.37;1.27;;;;;;;24.18;58.11;97776.72;5052082;28;20630;-23
2023/08/13 03:04:06;;;;;;;1.30;1.20;;;;;;;24.19;58.30;97775.88;5051218;28;20791;-23
2023/08/13 03:06:32;;;;;;;1.17;1.17;;;;;;;24.18;57.96;97771.59;5051697;28;20205;-23
2023/08/13 03:08:59;;;;;;;1.40;1.30;;;;;;;24.18;57.88;97776.72;5051543;28;20208;-24
2023/08/13 03:11:25;;;;;;;1.10;1.10;;;;;;;24.18;58.35;97769.03;5051873;28;20201;-27
2023/08/13 03:13:52;;;;;;;1.13;1.13;;;;;;;24.18;58.58;97768.13;5051495;28;20229;-24
2023/08/13 03:16:20;;;;;;;1.20;1.20;;;;;;;24.20;58.01;97774.19;5052152;28;20236;-23
2023/08/13 03:18:47;;;;;;;1.20;1.20;;;;;;;24.19;58.34;97769.91;5051502;28;20211;-34
2023/08/13 03:21:13;;;;;;;0.97;0.97;;;;;;;24.19;58.23;97775.88;5051860;28;20220;-23
2023/08/13 03:23:40;;;;;;;1.20;1.20;;;;;;;24.18;58.19;97769.03;5048368;28;20224;-28
2023/08/13 03:26:06;;;;;;;1.20;1.20;;;;;;;24.18;58.43;97771.59;5051396;28;20675;-24
2023/08/13 03:28:33;;;;;;;1.10;1.10;;;;;;;24.18;58.37;97774.16;5049050;28;20244;-24
2023/08/13 03:31:00;;;;;;;1.30;1.20;;;;;;;24.19;58.36;97769.91;5051505;28;20201;-23
2023/08/13 03:33:26;;;;;;;1.30;1.20;;;;;;;24.20;58.13;97776.75;5049883;28;20244;-27
2023/08/13 03:35:53;;;;;;;1.10;1.10;;;;;;;24.20;58.44;97775.06;5050833;28;20259;-24
2023/08/13 03:38:20;;;;;;;1.10;1.10;;;;;;;24.20;58.13;97777.63;5050873;28;20243;-24
2023/08/13 03:40:46;;;;;;;1.20;1.20;;;;;;;24.20;58.31;97777.63;5051735;28;20224;-24
2023/08/13 03:43:13;;;;;;;1.17;1.17;;;;;;;24.22;57.86;97778.53;5051274;28;20262;-34
2023/08/13 03:45:41;;;;;;;1.10;1.10;;;;;;;24.21;58.10;97774.22;5051276;28;20278;-25
2023/08/13 03:48:07;;;;;;;1.20;1.20;;;;;;;24.21;57.88;97779.38;5045882;28;20205;-24
2023/08/13 03:50:34;;;;;;;1.13;1.13;;;;;;;24.22;58.15;97775.94;5051269;28;20204;-23
2023/08/13 03:53:00;;;;;;;1.43;1.33;;;;;;;24.21;58.24;97781.94;5050985;28;20306;-25
2023/08/13 03:55:27;;;;;;;1.40;1.30;;;;;;;24.13;58.12;97760.34;5051213;28;20552;-28
2023/08/13 03:57:54;;;;;;;1.07;1.07;;;;;;;24.20;58.16;97775.06;5051044;28;20250;-23
2023/08/13 04:00:20;;;;;;;1.20;1.20;;;;;;;24.19;58.12;97781.00;5051228;28;20582;-24
2023/08/13 04:02:50;;;;;;;1.20;1.20;;;;;;;24.18;58.42;97779.28;5051011;28;20270;-23
2023/08/13 04:05:17;;;;;;;1.10;1.10;;;;;;;24.17;58.10;97764.72;5046550;28;20208;-23
2023/08/13 04:07:43;;;;;;;1.10;1.10;;;;;;;24.17;58.13;97772.44;5055385;28;20208;-23
2023/08/13 04:10:10;;;;;;;0.97;0.97;;;;;;;24.17;58.33;97771.56;5051130;28;20209;-28
2023/08/13 04:12:36;;;;;;;1.10;1.10;;;;;;;24.16;58.52;97775.81;5055038;28;20270;-25
2023/08/13 04:15:03;;;;;;;1.27;1.17;;;;;;;24.16;58.53;97780.09;5053543;28;20204;-24
2023/08/13 04:17:30;;;;;;;1.40;1.30;;;;;;;24.15;58.64;97779.22;5054990;28;20240;-23
2023/08/13 04:19:57;;;;;;;1.20;1.17;;;;;;;24.16;58.42;97780.94;5054796;28;20655;-23
2023/08/13 04:22:23;;;;;;;1.30;1.20;;;;;;;24.16;58.30;97777.53;5055036;28;20659;-24
2023/08/13 04:24:50;;;;;;;1.23;1.23;;;;;;;24.15;58.46;97779.22;5054816;28;20231;-23
2023/08/13 04:27:17;;;;;;;1.23;1.20;;;;;;;24.15;58.49;97774.09;5054706;28;20441;-23
2023/08/13 04:29:44;;;;;;;1.07;1.07;;;;;;;24.15;58.51;97778.34;5055136;28;20203;-23
2023/08/13 04:32:11;;;;;;;1.10;1.10;;;;;;;24.15;58.34;97779.22;5054597;28;20224;-30
2023/08/13 04:34:38;;;;;;;1.20;1.20;;;;;;;24.15;58.32;97784.34;5054625;28;20270;-23
2023/08/13 04:37:04;;;;;;;1.10;1.10;;;;;;;24.15;58.40;97783.47;5054665;28;20205;-23
2023/08/13 04:39:32;;;;;;;1.20;1.10;;;;;;;24.14;58.34;97781.75;5054554;28;20237;-23
2023/08/13 04:42:02;;;;;;;1.37;1.30;;;;;;;24.16;58.60;97774.97;5054350;28;20758;-23
2023/08/13 04:44:28;;;;;;;1.20;1.20;;;;;;;24.15;58.45;97781.78;5054693;28;20622;-24
2023/08/13 04:46:55;;;;;;;1.20;1.20;;;;;;;24.15;58.68;97766.38;5051258;28;20222;-23
2023/08/13 04:49:21;;;;;;;1.10;1.10;;;;;;;24.15;58.36;97760.38;5046524;28;20201;-23
2023/08/13 04:51:48;;;;;;;1.13;1.13;;;;;;;24.12;58.42;97758.59;5054304;28;20347;-26
2023/08/13 04:54:14;;;;;;;1.00;1.00;;;;;;;24.15;58.34;97765.50;5053928;28;20649;-23
2023/08/13 04:56:41;;;;;;;1.10;1.10;;;;;;;24.12;58.32;97768.00;5054521;28;20643;-23
2023/08/13 04:59:08;;;;;;;1.43;1.33;;;;;;;24.16;58.59;97772.41;5054480;28;20634;-23
2023/08/13 05:01:34;;;;;;;1.10;1.10;;;;;;;24.15;58.20;97774.09;5054368;28;20236;-31
2023/08/13 05:04:01;;;;;;;1.10;1.10;;;;;;;24.15;58.21;97771.53;5053791;28;20300;-24
2023/08/13 05:06:27;;;;;;;1.10;1.10;;;;;;;24.14;58.43;97764.66;5053998;28;20228;-23
2023/08/13 05:08:54;;;;;;;1.40;1.30;;;;;;;24.16;58.43;97773.25;5054187;28;20193;-23
2023/08/13 05:11:21;;;;;;;1.50;1.40;;;;;;;24.16;58.54;97769.84;5054182;28;20282;-31
2023/08/13 05:13:47;;;;;;;1.20;1.20;;;;;;;24.16;58.57;97773.25;5048538;28;20221;-23
2023/08/13 05:16:14;;;;;;;1.23;1.20;;;;;;;24.16;58.33;97768.09;5051406;28;20197;-23
2023/08/13 05:18:40;;;;;;;1.30;1.20;;;;;;;24.16;58.32;97770.69;5053943;28;20209;-23
2023/08/13 05:21:07;;;;;;;1.13;1.13;;;;;;;24.17;58.35;97764.72;5053612;28;20612;-23
2023/08/13 05:23:34;;;;;;;1.40;1.30;;;;;;;24.16;58.17;97775.81;5049085;28;20224;-23
2023/08/13 05:26:01;;;;;;;1.30;1.20;;;;;;;24.15;58.56;97786.94;5053650;28;20205;-23
2023/08/13 05:28:27;;;;;;;1.40;1.30;;;;;;;24.16;58.36;97791.22;5053955;28;20197;-23
2023/08/13 05:30:54;;;;;;;1.10;1.10;;;;;;;24.16;58.44;97778.38;5053894;28;20201;-33
2023/08/13 05:33:21;;;;;;;1.00;1.00;;;;;;;24.16;58.52;97775.81;5050070;28;20228;-24
2023/08/13 05:35:47;;;;;;;1.10;1.10;;;;;;;24.10;58.55;97765.41;5053582;28;20591;-23
2023/08/13 05:38:14;;;;;;;1.10;1.10;;;;;;;24.16;58.34;97786.09;5053356;28;20625;-29
2023/08/13 05:40:40;;;;;;;1.70;1.30;;;;;;;24.17;58.09;97795.53;5047665;28;20212;-25
2023/08/13 05:43:07;;;;;;;1.17;1.17;;;;;;;24.17;58.54;97784.41;5053345;28;20221;-23
2023/08/13 05:45:34;;;;;;;1.13;1.13;;;;;;;24.17;58.49;97771.56;5053228;28;20212;-42
2023/08/13 05:48:00;;;;;;;1.20;1.20;;;;;;;24.17;58.56;97782.69;5053404;28;20228;-24
2023/08/13 05:50:28;;;;;;;1.20;1.10;;;;;;;24.17;58.54;97787.84;5053562;28;20573;-24
2023/08/13 05:52:55;;;;;;;2.20;1.20;;;;;;;24.17;58.48;97790.41;5051008;28;20631;-25
2023/08/13 05:55:21;;;;;;;1.20;1.20;;;;;;;24.18;58.58;97788.69;5053058;28;20213;-23
2023/08/13 05:57:48;;;;;;;1.27;1.17;;;;;;;24.17;58.42;97786.97;5053435;28;20262;-23
2023/08/13 06:00:15;;;;;;;1.00;1.00;;;;;;;24.17;58.33;97782.69;5053043;28;20506;-23
2023/08/13 06:02:42;;;;;;;1.27;1.20;;;;;;;24.17;58.28;97784.41;5052992;28;20229;-23
2023/08/13 06:05:08;;;;;;;1.10;1.10;;;;;;;24.17;58.63;97787.84;5052702;28;20205;-25
2023/08/13 06:07:35;;;;;;;1.10;1.10;;;;;;;24.18;58.35;97788.69;5053461;28;20787;-23
2023/08/13 06:10:02;;;;;;;1.23;1.17;;;;;;;24.18;58.68;97789.56;5052967;28;20580;-28
2023/08/13 06:12:28;;;;;;;1.63;1.20;;;;;;;24.17;58.09;97790.41;5051107;28;20225;-23
2023/08/13 06:14:55;;;;;;;0.97;0.97;;;;;;;24.17;58.33;97777.56;5052496;28;20248;-23
2023/08/13 06:17:22;;;;;;;1.33;1.23;;;;;;;24.17;58.55;97787.84;5052907;28;20251;-27
2023/08/13 06:19:48;;;;;;;1.10;1.10;;;;;;;24.17;58.35;97784.41;5053008;28;20207;-23
2023/08/13 06:22:15;;;;;;;1.10;1.10;;;;;;;24.16;58.57;97786.09;5052546;28;20699;-23
2023/08/13 06:24:42;;;;;;;1.17;1.17;;;;;;;24.16;58.17;97788.66;5052693;28;20617;-26
2023/08/13 06:27:09;;;;;;;1.10;1.10;;;;;;;24.17;58.40;97789.53;5052047;28;20266;-23
2023/08/13 06:29:36;;;;;;;1.30;1.30;;;;;;;24.16;58.36;97791.22;5047740;28;20677;-23
2023/08/13 06:32:03;;;;;;;1.17;1.17;;;;;;;24.16;58.37;97793.78;5051153;28;20228;-27
2023/08/13 06:34:29;;;;;;;1.10;1.10;;;;;;;24.17;58.55;97800.69;5052157;28;20290;-23
2023/08/13 06:36:57;;;;;;;1.43;1.33;;;;;;;24.17;58.28;97813.53;5052613;28;20204;-23
2023/08/13 06:39:24;;;;;;;1.10;1.10;;;;;;;24.16;58.38;97808.34;5049559;28;20197;-23
2023/08/13 06:41:51;;;;;;;1.20;1.20;;;;;;;24.16;58.45;97810.91;5046872;28;20201;-23
2023/08/13 06:44:18;;;;;;;1.30;1.20;;;;;;;24.16;58.16;97819.47;5052181;28;20201;-24
2023/08/13 06:46:48;;;;;;;1.10;1.10;;;;;;;24.16;58.35;97811.75;5052200;28;20251;-27
2023/08/13 06:49:15;;;;;;;1.10;1.10;;;;;;;24.16;58.40;97810.91;5051932;28;20205;-23
2023/08/13 06:51:41;;;;;;;1.37;1.27;;;;;;;24.16;58.49;97798.91;5051970;28;20193;-35
2023/08/13 06:54:08;;;;;;;1.10;1.10;;;;;;;24.16;58.17;97795.50;5051643;28;20225;-24
2023/08/13 06:56:36;;;;;;;1.10;1.10;;;;;;;24.17;58.08;97798.13;5049237;28;20261;-22
2023/08/13 06:59:03;;;;;;;1.10;1.10;;;;;;;24.17;58.40;97792.97;5051558;28;20255;-22
2023/08/13 07:01:31;;;;;;;1.00;1.00;;;;;;;24.16;58.61;97788.66;5051532;28;20205;-24
2023/08/13 07:03:58;;;;;;;1.23;1.13;;;;;;;24.17;58.43;97790.41;5045132;28;20213;-22
2023/08/13 07:06:25;;;;;;;1.10;1.10;;;;;;;24.16;58.24;97780.94;5050137;28;20201;-23
2023/08/13 07:08:51;;;;;;;1.40;1.30;;;;;;;24.17;58.67;97784.41;5051608;28;20205;-22
2023/08/13 07:11:18;;;;;;;1.20;1.20;;;;;;;24.16;58.53;97780.94;5051244;28;20204;-30
2023/08/13 07:13:45;;;;;;;1.03;0.93;;;;;;;24.17;58.11;97776.69;5048434;28;20225;-25
2023/08/13 07:16:13;;;;;;;1.00;1.00;;;;;;;24.18;58.48;97776.72;5048384;28;20205;-22
2023/08/13 07:18:42;;;;;;;1.20;1.20;;;;;;;24.19;58.20;97777.59;5051363;28;20584;-23
2023/08/13 07:21:09;;;;;;;1.30;1.20;;;;;;;24.19;58.29;97773.31;5051649;28;20204;-22
2023/08/13 07:23:36;;;;;;;1.23;1.20;;;;;;;24.18;58.29;97763.88;5039467;28;20212;-22
2023/08/13 07:26:03;;;;;;;1.40;1.30;;;;;;;24.20;58.19;97769.06;5051841;28;20193;-27
2023/08/13 07:28:32;;;;;;;1.10;1.10;;;;;;;24.20;58.20;97767.38;5051579;28;20292;-22
2023/08/13 07:30:59;;;;;;;2.07;1.17;;;;;;;24.19;58.09;97763.03;5051617;28;20599;-22
2023/08/13 07:33:25;;;;;;;1.20;1.20;;;;;;;24.20;58.47;97769.06;5051067;28;20290;-25
2023/08/13 07:35:52;;;;;;;1.20;1.20;;;;;;;24.19;58.20;97773.31;5050639;28;20610;-24
2023/08/13 07:38:18;;;;;;;1.10;1.10;;;;;;;24.19;58.23;97767.34;5050891;28;20557;-22
2023/08/13 07:40:45;;;;;;;1.23;1.13;;;;;;;24.18;58.46;97766.44;5045082;28;20224;-22
2023/08/13 07:43:11;;;;;;;1.10;1.10;;;;;;;24.17;58.54;97769.88;5051353;28;20217;-28
2023/08/13 07:45:38;;;;;;;1.40;1.30;;;;;;;24.17;58.46;97772.44;5043245;28;20248;-22
2023/08/13 07:48:05;;;;;;;1.20;1.20;;;;;;;24.15;58.15;97768.94;5051090;28;20284;-24
2023/08/13 07:50:31;;;;;;;1.87;1.10;;;;;;;24.16;58.10;97775.81;5051470;28;20262;-22
2023/08/13 07:52:58;;;;;;;1.10;1.10;;;;;;;24.15;58.30;97778.34;5049924;28;20232;-27
2023/08/13 07:55:25;;;;;;;1.00;1.00;;;;;;;24.13;58.64;97788.59;5051103;28;20224;-24
2023/08/13 07:57:51;;;;;;;1.00;1.00;;;;;;;24.15;58.54;97793.75;5051374;28;20250;-23
2023/08/13 08:00:18;;;;;;;0.90;0.90;;;;;;;24.14;58.19;97795.47;5051102;28;20616;-28
2023/08/13 08:02:45;;;;;;;1.10;1.10;;;;;;;24.14;58.35;97797.16;5048446;28;20224;-22
2023/08/13 08:05:12;;;;;;;1.00;1.00;;;;;;;24.14;58.34;97812.56;5051175;28;20610;-24
2023/08/13 08:07:38;;;;;;;1.10;1.10;;;;;;;24.14;58.28;97816.03;5050974;28;20246;-27
2023/08/13 08:10:06;;;;;;;1.10;1.10;;;;;;;24.14;58.52;97828.88;5050418;28;20201;-22
2023/08/13 08:12:32;;;;;;;1.07;1.07;;;;;;;24.08;58.38;97815.00;5051006;28;20718;-24
2023/08/13 08:14:59;;;;;;;1.17;1.17;;;;;;;24.14;58.06;97828.88;5051138;28;20255;-22
2023/08/13 08:17:26;;;;;;;1.10;1.10;;;;;;;24.15;58.60;97827.13;5049986;28;20240;-24
2023/08/13 08:19:54;;;;;;;1.03;1.03;;;;;;;24.14;58.49;97816.03;5051176;28;20193;-23
2023/08/13 08:22:20;;;;;;;1.00;1.00;;;;;;;24.14;58.53;97808.31;5050830;28;20216;-22
2023/08/13 08:24:47;;;;;;;1.10;1.10;;;;;;;24.14;58.28;97797.16;5050953;28;20278;-22
2023/08/13 08:27:13;;;;;;;1.40;1.30;;;;;;;24.14;58.42;97790.34;5046873;28;20239;-25
2023/08/13 08:29:40;;;;;;;1.10;1.10;;;;;;;24.14;58.21;97764.66;5050958;28;20200;-24
2023/08/13 08:32:06;;;;;;;1.20;1.20;;;;;;;24.14;58.42;97764.66;5045928;28;20652;-22
2023/08/13 08:34:34;;;;;;;1.40;1.30;;;;;;;24.14;58.17;97774.06;5050741;28;20224;-22
2023/08/13 08:37:03;;;;;;;1.10;1.10;;;;;;;24.14;58.45;97771.47;5050750;28;20207;-23
2023/08/13 08:39:30;;;;;;;1.00;1.00;;;;;;;24.15;58.58;97775.78;5050771;28;20251;-22
2023/08/13 08:41:56;;;;;;;0.90;0.90;;;;;;;24.14;58.52;97780.06;5050639;28;20259;-28
2023/08/13 08:44:24;;;;;;;1.10;1.10;;;;;;;24.14;58.51;97772.38;5050668;28;20318;-27
2023/08/13 08:46:53;;;;;;;1.07;1.07;;;;;;;24.15;58.41;97763.81;5049663;28;20201;-27
2023/08/13 08:49:21;;;;;;;1.17;1.17;;;;;;;24.15;58.24;97768.06;5049623;28;20663;-24
2023/08/13 08:51:48;;;;;;;1.03;1.03;;;;;;;24.15;58.60;97771.53;5046777;28;20208;-22
2023/08/13 08:54:15;;;;;;;1.10;1.10;;;;;;;24.16;58.18;97764.69;5053996;28;20277;-26
2023/08/13 08:56:41;;;;;;;1.00;1.00;;;;;;;24.12;58.38;97763.75;5054270;28;20659;-22
2023/08/13 08:59:08;;;;;;;1.00;1.00;;;;;;;24.16;57.86;97772.41;5054477;28;20205;-24
2023/08/13 09:01:34;;;;;;;1.10;1.10;;;;;;;24.16;58.15;97769.84;5053632;28;20675;-24
2023/08/13 09:04:01;;;;;;;1.00;1.00;;;;;;;24.15;58.15;97768.94;5047938;28;20220;-25
2023/08/13 09:07:02;;;;;;;0.97;0.97;;;;;;;24.16;58.18;97780.09;5053958;28;20237;-22
2023/08/13 09:09:29;;;;;;;0.93;0.93;;;;;;;24.16;58.47;97780.94;5021509;28;20564;-22
2023/08/13 09:11:56;;;;;;;1.00;1.00;;;;;;;24.16;58.49;97769.84;5054231;28;20200;-22
2023/08/13 09:14:23;;;;;;;1.00;1.00;;;;;;;24.15;58.45;97774.09;5053765;28;20224;-24
2023/08/13 09:16:51;;;;;;;1.17;1.17;;;;;;;24.15;58.42;97770.63;5053989;28;20553;-25
2023/08/13 09:19:18;;;;;;;1.10;1.10;;;;;;;24.14;58.17;97767.22;5054075;28;20201;-27
2023/08/13 09:21:49;;;;;;;1.07;1.07;;;;;;;24.16;58.19;97764.69;5053976;28;20201;-24
2023/08/13 09:24:16;;;;;;;1.10;1.00;;;;;;;24.15;58.38;97753.53;5053562;28;20193;-23
2023/08/13 09:26:43;;;;;;;1.20;1.10;;;;;;;24.15;58.32;97743.28;5053862;28;20197;-22
2023/08/13 09:29:09;;;;;;;1.10;1.10;;;;;;;24.15;58.49;97745.84;5046499;28;20205;-32
2023/08/13 09:31:36;;;;;;;1.10;1.10;;;;;;;24.15;58.13;97745.84;5053770;28;20201;-24
2023/08/13 09:34:03;;;;;;;0.97;0.97;;;;;;;24.12;58.17;97734.63;5053616;28;20260;-24
2023/08/13 09:36:30;;;;;;;0.97;0.97;;;;;;;24.16;58.45;97750.13;5052305;28;20229;-22
2023/08/13 09:38:56;;;;;;;1.10;1.10;;;;;;;24.16;58.23;97747.56;5053674;28;20197;-33
2023/08/13 09:41:23;;;;;;;1.30;1.20;;;;;;;23.99;58.33;97718.09;5053676;28;20204;-22
2023/08/13 09:43:49;;;;;;;1.10;1.10;;;;;;;24.15;57.99;97748.41;5027457;28;20217;-22
2023/08/13 09:46:19;;;;;;;1.07;1.07;;;;;;;24.16;58.49;97744.16;5035269;28;20294;-22
2023/08/13 09:48:46;;;;;;;1.03;1.03;;;;;;;24.16;58.32;97741.56;5048990;28;20280;-24
2023/08/13 09:51:13;;;;;;;1.00;1.00;;;;;;;24.16;58.44;97741.56;5052362;28;20201;-22
2023/08/13 09:53:53;;;;;;;1.00;1.00;;;;;;;24.15;58.28;97738.13;5040790;28;20235;-24
2023/08/13 09:56:19;;;;;;;1.00;1.00;;;;;;;24.16;58.46;97733.88;5051891;28;20205;-22
2023/08/13 09:58:46;;;;;;;1.00;1.00;;;;;;;24.16;58.42;97729.59;5034732;28;20567;-24
2023/08/13 10:01:13;;;;;;;1.20;1.20;;;;;;;24.12;58.14;97714.94;5051406;28;20229;-22
2023/08/13 10:03:40;;;;;;;0.90;0.90;;;;;;;24.16;58.11;97727.00;5033563;28;20484;-25
2023/08/13 10:06:06;;;;;;;1.00;1.00;;;;;;;24.16;58.15;97724.44;5051973;28;20193;-22
2023/08/13 10:08:33;;;;;;;1.00;1.00;;;;;;;24.12;58.33;97719.22;5044765;28;20292;-22
2023/08/13 10:10:59;;;;;;;1.10;1.10;;;;;;;24.16;58.29;97724.44;5035527;28;20201;-21
2023/08/13 10:13:26;;;;;;;1.00;1.00;;;;;;;24.16;58.50;97729.59;5034934;28;20217;-22
2023/08/13 10:15:52;;;;;;;0.90;0.90;;;;;;;24.16;58.39;97734.72;5044877;28;20251;-24
2023/08/13 10:18:21;;;;;;;1.10;1.10;;;;;;;24.16;58.44;97732.16;5051597;28;20232;-22
2023/08/13 10:20:47;;;;;;;1.00;1.00;;;;;;;24.17;58.09;97728.78;5051669;28;20204;-24
2023/08/13 10:23:14;;;;;;;1.10;1.10;;;;;;;24.16;58.51;97732.16;5051313;28;20217;-24
2023/08/13 10:25:43;;;;;;;1.00;1.00;;;;;;;24.16;58.34;97721.88;5034726;28;20741;-24
2023/08/13 10:28:39;;;;;;;1.03;1.03;;;;;;;24.16;58.00;97721.88;5031320;28;20194;-24
2023/08/13 10:31:25;;;;;;;1.00;1.00;;;;;;;24.16;58.44;97721.88;5039473;28;20255;-22
2023/08/13 10:34:12;;;;;;;1.10;1.10;;;;;;;24.16;58.12;97719.31;5052186;28;20217;-25
2023/08/13 10:36:49;;;;;;;1.20;1.20;;;;;;;24.17;58.14;97715.06;5051309;28;20200;-33
2023/08/13 10:39:35;;;;;;;1.00;1.00;;;;;;;23.08;58.57;97521.75;5052512;28;20204;-23
2023/08/13 10:42:03;;;;;;;0.90;0.90;;;;;;;24.16;58.50;97701.34;5045335;28;20200;-24
2023/08/13 10:44:39;;;;;;;1.00;1.00;;;;;;;24.16;58.17;97703.91;5052211;28;20227;-24
2023/08/13 10:47:05;;;;;;;1.10;1.10;;;;;;;24.16;58.46;97695.34;5044450;28;20197;-23
2023/08/13 10:49:32;;;;;;;0.90;0.90;;;;;;;24.16;58.43;97701.34;5052265;28;20201;-25
2023/08/13 10:52:02;;;;;;;1.00;1.00;;;;;;;24.16;58.29;97697.94;5050916;28;20232;-22
2023/08/13 10:54:29;;;;;;;1.00;1.00;;;;;;;24.16;58.09;97688.50;5051840;28;20225;-22
2023/08/13 10:56:58;;;;;;;1.00;1.00;;;;;;;24.17;58.18;97690.25;5044514;28;20204;-24
2023/08/13 10:59:29;;;;;;;1.10;1.10;;;;;;;24.17;58.28;97690.25;5052199;28;20197;-24
2023/08/13 11:02:13;;;;;;;1.00;1.00;;;;;;;24.18;58.19;97680.81;5051977;28;20221;-26
2023/08/13 11:04:41;;;;;;;1.07;1.07;;;;;;;24.13;58.25;97670.44;5051688;28;20207;-28
2023/08/13 11:07:09;;;;;;;1.00;1.00;;;;;;;24.19;58.20;97682.59;5051892;28;20323;-22
2023/08/13 11:09:37;;;;;;;0.93;0.93;;;;;;;24.16;58.16;97680.78;5044569;28;20744;-24
2023/08/13 11:12:05;;;;;;;1.10;1.10;;;;;;;24.20;58.22;97686.88;5040840;28;20212;-24
2023/08/13 11:14:32;;;;;;;1.00;1.00;;;;;;;24.20;58.03;97679.16;5046109;28;20224;-22
2023/08/13 11:16:59;;;;;;;1.00;1.00;;;;;;;24.19;58.20;97677.44;5043462;28;20228;-22
2023/08/13 11:19:25;;;;;;;0.80;0.80;;;;;;;24.18;58.46;97685.97;5051877;28;20255;-24
2023/08/13 11:21:54;;;;;;;1.00;1.00;;;;;;;24.17;58.22;97679.09;5046466;28;20235;-22
2023/08/13 11:24:21;;;;;;;1.00;1.00;;;;;;;24.00;58.19;97653.06;5047555;28;20208;-22
2023/08/13 11:26:51;;;;;;;1.23;0.90;;;;;;;24.17;58.16;97679.09;5050460;28;20209;-22
2023/08/13 11:29:19;;;;;;;1.00;1.00;;;;;;;24.16;58.08;97683.34;5051320;28;20647;-27
2023/08/13 11:31:45;;;;;;;0.90;0.90;;;;;;;24.15;58.05;97673.06;5051693;28;20236;-22
2023/08/13 11:34:13;;;;;;;1.03;1.03;;;;;;;24.15;57.95;97670.50;5051429;28;20611;-24
2023/08/13 11:36:39;;;;;;;1.20;1.20;;;;;;;24.09;58.51;97663.53;5050359;28;20197;-22